Hansen, Nebraska
Current Conditions -  °F | °C
As of 7:22 AM on Thursday 18 Dec 2014 (Local Time) from KHSI Reporting Station
Overcast Overcast  
Wind Chill: 17°   Ceiling: 4100
Heat Index: 24°   Visibility: 8mi
Dew Point: 21°   Wind: 6mph
Humidity: 88%   Direction: 140°SE
Pressure: 30.15"   Gusts: NA
Location:  40.5551°N, 98.369°W
Report Text: KHSI 181322Z AUTO 14005KT 8SM SCT006 OVC041 M04/M06 A3015 RMK AO2 T10441061
Loading
Personal Weather Stations






























Interactive Weather Map New forecast layout! Learn more

10-Day Weather Forecast

Advertisements
Track Severe Weather on mobile